sensor_id;sensor_type;location;lat;lon;timestamp;P1;durP1;ratioP1;P2;durP2;ratioP2
54935;SDS011;40838;50.676;7.838;2023-11-21T00:02:26;5.93;;;3.20;;
54935;SDS011;40838;50.676;7.838;2023-11-21T00:04:53;3.78;;;2.55;;
54935;SDS011;40838;50.676;7.838;2023-11-21T00:07:21;5.60;;;3.47;;
54935;SDS011;40838;50.676;7.838;2023-11-21T00:09:48;4.15;;;2.65;;
54935;SDS011;40838;50.676;7.838;2023-11-21T00:12:16;3.55;;;2.38;;
54935;SDS011;40838;50.676;7.838;2023-11-21T00:14:43;3.30;;;1.50;;
54935;SDS011;40838;50.676;7.838;2023-11-21T00:17:10;2.08;;;1.20;;
54935;SDS011;40838;50.676;7.838;2023-11-21T00:19:37;2.30;;;1.10;;
54935;SDS011;40838;50.676;7.838;2023-11-21T00:22:03;1.65;;;0.95;;
54935;SDS011;40838;50.676;7.838;2023-11-21T00:24:33;1.58;;;1.20;;
54935;SDS011;40838;50.676;7.838;2023-11-21T00:27:00;1.67;;;0.75;;
54935;SDS011;40838;50.676;7.838;2023-11-21T00:29:27;6.90;;;3.47;;
54935;SDS011;40838;50.676;7.838;2023-11-21T00:31:54;10.32;;;5.25;;
54935;SDS011;40838;50.676;7.838;2023-11-21T00:34:21;9.15;;;5.20;;
54935;SDS011;40838;50.676;7.838;2023-11-21T00:36:47;9.93;;;5.05;;
54935;SDS011;40838;50.676;7.838;2023-11-21T00:39:14;11.02;;;5.32;;
54935;SDS011;40838;50.676;7.838;2023-11-21T00:41:42;8.00;;;4.28;;
54935;SDS011;40838;50.676;7.838;2023-11-21T00:44:10;10.15;;;4.60;;
54935;SDS011;40838;50.676;7.838;2023-11-21T00:46:36;13.23;;;5.40;;
54935;SDS011;40838;50.676;7.838;2023-11-21T00:49:03;9.30;;;4.35;;
54935;SDS011;40838;50.676;7.838;2023-11-21T00:51:30;9.85;;;4.07;;
54935;SDS011;40838;50.676;7.838;2023-11-21T00:53:58;7.47;;;4.20;;
54935;SDS011;40838;50.676;7.838;2023-11-21T00:56:25;9.70;;;4.35;;
54935;SDS011;40838;50.676;7.838;2023-11-21T00:58:53;9.68;;;4.53;;
54935;SDS011;40838;50.676;7.838;2023-11-21T01:01:21;7.95;;;4.25;;
54935;SDS011;40838;50.676;7.838;2023-11-21T01:03:49;6.13;;;3.55;;
54935;SDS011;40838;50.676;7.838;2023-11-21T01:06:16;7.35;;;4.35;;
54935;SDS011;40838;50.676;7.838;2023-11-21T01:08:43;6.88;;;2.20;;
54935;SDS011;40838;50.676;7.838;2023-11-21T01:11:10;6.07;;;2.75;;
54935;SDS011;40838;50.676;7.838;2023-11-21T01:13:38;2.90;;;2.20;;
54935;SDS011;40838;50.676;7.838;2023-11-21T01:16:07;3.13;;;1.85;;
54935;SDS011;40838;50.676;7.838;2023-11-21T01:18:34;1.55;;;1.40;;
54935;SDS011;40838;50.676;7.838;2023-11-21T01:21:01;5.55;;;1.80;;
54935;SDS011;40838;50.676;7.838;2023-11-21T01:23:28;1.98;;;1.48;;
54935;SDS011;40838;50.676;7.838;2023-11-21T01:25:55;1.77;;;0.98;;
54935;SDS011;40838;50.676;7.838;2023-11-21T01:28:23;3.53;;;1.38;;
54935;SDS011;40838;50.676;7.838;2023-11-21T01:30:50;3.38;;;0.80;;
54935;SDS011;40838;50.676;7.838;2023-11-21T01:33:20;1.23;;;1.02;;
54935;SDS011;40838;50.676;7.838;2023-11-21T01:35:46;3.13;;;1.02;;
54935;SDS011;40838;50.676;7.838;2023-11-21T01:38:13;4.10;;;1.30;;
54935;SDS011;40838;50.676;7.838;2023-11-21T01:40:42;0.95;;;0.80;;
54935;SDS011;40838;50.676;7.838;2023-11-21T01:43:11;1.55;;;0.88;;
54935;SDS011;40838;50.676;7.838;2023-11-21T01:45:38;2.13;;;0.80;;
54935;SDS011;40838;50.676;7.838;2023-11-21T01:48:04;0.77;;;0.73;;
54935;SDS011;40838;50.676;7.838;2023-11-21T01:50:34;4.93;;;1.17;;
54935;SDS011;40838;50.676;7.838;2023-11-21T01:53:01;1.95;;;0.98;;
54935;SDS011;40838;50.676;7.838;2023-11-21T01:55:28;3.05;;;1.50;;
54935;SDS011;40838;50.676;7.838;2023-11-21T01:57:56;4.32;;;1.05;;
54935;SDS011;40838;50.676;7.838;2023-11-21T02:00:23;6.65;;;1.70;;
54935;SDS011;40838;50.676;7.838;2023-11-21T02:02:51;16.55;;;2.20;;
54935;SDS011;40838;50.676;7.838;2023-11-21T02:05:18;1.88;;;0.90;;
54935;SDS011;40838;50.676;7.838;2023-11-21T02:07:48;5.55;;;1.80;;
54935;SDS011;40838;50.676;7.838;2023-11-21T02:10:17;4.30;;;1.15;;
54935;SDS011;40838;50.676;7.838;2023-11-21T02:12:47;8.63;;;1.52;;
54935;SDS011;40838;50.676;7.838;2023-11-21T02:15:15;2.30;;;1.50;;
54935;SDS011;40838;50.676;7.838;2023-11-21T02:17:45;5.43;;;1.30;;
54935;SDS011;40838;50.676;7.838;2023-11-21T02:20:15;5.63;;;1.13;;
54935;SDS011;40838;50.676;7.838;2023-11-21T02:22:43;5.95;;;1.25;;
54935;SDS011;40838;50.676;7.838;2023-11-21T02:25:12;18.42;;;2.63;;
54935;SDS011;40838;50.676;7.838;2023-11-21T02:27:39;2.92;;;1.55;;
54935;SDS011;40838;50.676;7.838;2023-11-21T02:30:06;4.28;;;1.13;;
54935;SDS011;40838;50.676;7.838;2023-11-21T02:32:37;8.35;;;1.80;;
54935;SDS011;40838;50.676;7.838;2023-11-21T02:35:05;5.88;;;0.98;;
54935;SDS011;40838;50.676;7.838;2023-11-21T02:37:33;1.13;;;1.00;;
54935;SDS011;40838;50.676;7.838;2023-11-21T02:40:00;6.30;;;1.40;;
54935;SDS011;40838;50.676;7.838;2023-11-21T02:42:30;6.32;;;1.55;;
54935;SDS011;40838;50.676;7.838;2023-11-21T02:44:57;2.45;;;1.45;;
54935;SDS011;40838;50.676;7.838;2023-11-21T02:47:24;64.43;;;4.03;;
54935;SDS011;40838;50.676;7.838;2023-11-21T02:49:50;4.90;;;1.98;;
54935;SDS011;40838;50.676;7.838;2023-11-21T02:52:18;16.25;;;3.03;;
54935;SDS011;40838;50.676;7.838;2023-11-21T02:54:46;4.03;;;2.60;;
54935;SDS011;40838;50.676;7.838;2023-11-21T02:57:13;6.20;;;2.80;;
54935;SDS011;40838;50.676;7.838;2023-11-21T02:59:41;10.38;;;2.22;;
54935;SDS011;40838;50.676;7.838;2023-11-21T03:02:07;14.35;;;3.10;;
54935;SDS011;40838;50.676;7.838;2023-11-21T03:04:37;15.50;;;3.22;;
54935;SDS011;40838;50.676;7.838;2023-11-21T03:07:03;12.52;;;3.25;;
54935;SDS011;40838;50.676;7.838;2023-11-21T03:09:30;43.75;;;5.38;;
54935;SDS011;40838;50.676;7.838;2023-11-21T03:11:57;92.22;;;7.00;;
54935;SDS011;40838;50.676;7.838;2023-11-21T03:14:24;135.98;;;7.75;;
54935;SDS011;40838;50.676;7.838;2023-11-21T03:16:52;31.23;;;4.43;;
54935;SDS011;40838;50.676;7.838;2023-11-21T03:19:19;80.75;;;6.68;;
54935;SDS011;40838;50.676;7.838;2023-11-21T03:21:47;30.15;;;4.97;;
54935;SDS011;40838;50.676;7.838;2023-11-21T03:24:13;8.73;;;4.20;;
54935;SDS011;40838;50.676;7.838;2023-11-21T03:26:44;7.15;;;4.28;;
54935;SDS011;40838;50.676;7.838;2023-11-21T03:29:11;4.65;;;3.30;;
54935;SDS011;40838;50.676;7.838;2023-11-21T03:31:38;7.05;;;3.40;;
54935;SDS011;40838;50.676;7.838;2023-11-21T03:34:09;6.05;;;3.65;;
54935;SDS011;40838;50.676;7.838;2023-11-21T03:36:49;6.38;;;4.18;;
54935;SDS011;40838;50.676;7.838;2023-11-21T03:39:17;6.50;;;4.18;;
54935;SDS011;40838;50.676;7.838;2023-11-21T03:41:45;8.70;;;4.68;;
54935;SDS011;40838;50.676;7.838;2023-11-21T03:44:12;6.28;;;4.10;;
54935;SDS011;40838;50.676;7.838;2023-11-21T03:46:39;10.15;;;5.35;;
54935;SDS011;40838;50.676;7.838;2023-11-21T03:49:07;8.55;;;4.95;;
54935;SDS011;40838;50.676;7.838;2023-11-21T03:51:34;10.18;;;5.63;;
54935;SDS011;40838;50.676;7.838;2023-11-21T03:54:02;7.85;;;4.70;;
54935;SDS011;40838;50.676;7.838;2023-11-21T03:56:29;7.43;;;5.00;;
54935;SDS011;40838;50.676;7.838;2023-11-21T03:58:56;10.73;;;5.15;;
54935;SDS011;40838;50.676;7.838;2023-11-21T04:01:23;11.43;;;5.88;;
54935;SDS011;40838;50.676;7.838;2023-11-21T04:03:51;14.60;;;6.82;;
54935;SDS011;40838;50.676;7.838;2023-11-21T04:06:19;14.95;;;6.43;;
54935;SDS011;40838;50.676;7.838;2023-11-21T04:08:46;17.27;;;7.07;;
54935;SDS011;40838;50.676;7.838;2023-11-21T04:11:12;21.63;;;8.07;;
54935;SDS011;40838;50.676;7.838;2023-11-21T04:13:39;30.73;;;8.80;;
54935;SDS011;40838;50.676;7.838;2023-11-21T04:16:08;21.08;;;8.70;;
54935;SDS011;40838;50.676;7.838;2023-11-21T04:18:35;18.60;;;8.23;;
54935;SDS011;40838;50.676;7.838;2023-11-21T04:21:03;27.23;;;10.25;;
54935;SDS011;40838;50.676;7.838;2023-11-21T04:23:32;28.50;;;10.13;;
54935;SDS011;40838;50.676;7.838;2023-11-21T04:25:59;20.60;;;9.13;;
54935;SDS011;40838;50.676;7.838;2023-11-21T04:28:27;27.20;;;9.57;;
54935;SDS011;40838;50.676;7.838;2023-11-21T04:30:54;19.58;;;9.25;;
54935;SDS011;40838;50.676;7.838;2023-11-21T04:33:21;22.15;;;9.38;;
54935;SDS011;40838;50.676;7.838;2023-11-21T04:35:47;27.30;;;10.90;;
54935;SDS011;40838;50.676;7.838;2023-11-21T04:38:14;23.65;;;9.70;;
54935;SDS011;40838;50.676;7.838;2023-11-21T04:40:42;28.52;;;10.80;;
54935;SDS011;40838;50.676;7.838;2023-11-21T04:43:09;29.98;;;11.52;;
54935;SDS011;40838;50.676;7.838;2023-11-21T04:45:36;23.02;;;10.98;;
54935;SDS011;40838;50.676;7.838;2023-11-21T04:48:03;21.75;;;10.35;;
54935;SDS011;40838;50.676;7.838;2023-11-21T04:50:30;24.15;;;10.23;;
54935;SDS011;40838;50.676;7.838;2023-11-21T04:52:57;20.33;;;9.88;;
54935;SDS011;40838;50.676;7.838;2023-11-21T04:55:23;19.98;;;10.77;;
54935;SDS011;40838;50.676;7.838;2023-11-21T04:57:54;21.15;;;9.35;;
54935;SDS011;40838;50.676;7.838;2023-11-21T05:00:21;23.13;;;9.63;;
54935;SDS011;40838;50.676;7.838;2023-11-21T05:02:48;21.75;;;10.18;;
54935;SDS011;40838;50.676;7.838;2023-11-21T05:05:15;33.60;;;11.65;;
54935;SDS011;40838;50.676;7.838;2023-11-21T05:07:42;24.33;;;10.32;;
54935;SDS011;40838;50.676;7.838;2023-11-21T05:10:08;38.28;;;11.68;;
54935;SDS011;40838;50.676;7.838;2023-11-21T05:12:37;88.60;;;16.50;;
54935;SDS011;40838;50.676;7.838;2023-11-21T05:15:06;86.82;;;15.10;;
54935;SDS011;40838;50.676;7.838;2023-11-21T05:17:35;102.40;;;16.85;;
54935;SDS011;40838;50.676;7.838;2023-11-21T05:20:02;27.42;;;12.93;;
54935;SDS011;40838;50.676;7.838;2023-11-21T05:22:30;193.43;;;21.23;;
54935;SDS011;40838;50.676;7.838;2023-11-21T05:24:57;108.57;;;17.13;;
54935;SDS011;40838;50.676;7.838;2023-11-21T05:27:24;196.48;;;20.17;;
54935;SDS011;40838;50.676;7.838;2023-11-21T05:29:51;122.32;;;18.13;;
54935;SDS011;40838;50.676;7.838;2023-11-21T05:32:21;54.35;;;13.02;;
54935;SDS011;40838;50.676;7.838;2023-11-21T05:34:48;136.75;;;17.85;;
54935;SDS011;40838;50.676;7.838;2023-11-21T05:37:15;64.93;;;13.30;;
54935;SDS011;40838;50.676;7.838;2023-11-21T05:39:42;115.93;;;18.35;;
54935;SDS011;40838;50.676;7.838;2023-11-21T05:42:09;111.28;;;16.83;;
54935;SDS011;40838;50.676;7.838;2023-11-21T05:44:36;63.20;;;15.88;;
54935;SDS011;40838;50.676;7.838;2023-11-21T05:47:03;63.88;;;16.83;;
54935;SDS011;40838;50.676;7.838;2023-11-21T05:49:33;46.65;;;16.10;;
54935;SDS011;40838;50.676;7.838;2023-11-21T05:52:00;39.95;;;15.55;;
54935;SDS011;40838;50.676;7.838;2023-11-21T05:54:27;75.65;;;19.25;;
54935;SDS011;40838;50.676;7.838;2023-11-21T05:56:53;49.05;;;18.00;;
54935;SDS011;40838;50.676;7.838;2023-11-21T05:59:20;54.88;;;18.23;;
54935;SDS011;40838;50.676;7.838;2023-11-21T06:01:47;47.65;;;17.15;;
54935;SDS011;40838;50.676;7.838;2023-11-21T06:04:14;58.25;;;20.35;;
54935;SDS011;40838;50.676;7.838;2023-11-21T06:06:42;63.90;;;17.45;;
54935;SDS011;40838;50.676;7.838;2023-11-21T06:09:09;41.75;;;16.60;;
54935;SDS011;40838;50.676;7.838;2023-11-21T06:11:37;34.92;;;15.23;;
54935;SDS011;40838;50.676;7.838;2023-11-21T06:14:04;43.65;;;16.20;;
54935;SDS011;40838;50.676;7.838;2023-11-21T06:16:33;37.90;;;15.43;;
54935;SDS011;40838;50.676;7.838;2023-11-21T06:18:59;34.35;;;15.63;;
54935;SDS011;40838;50.676;7.838;2023-11-21T06:21:26;33.65;;;15.18;;
54935;SDS011;40838;50.676;7.838;2023-11-21T06:23:54;34.92;;;15.02;;
54935;SDS011;40838;50.676;7.838;2023-11-21T06:26:24;31.13;;;15.48;;
54935;SDS011;40838;50.676;7.838;2023-11-21T06:28:51;38.63;;;15.88;;
54935;SDS011;40838;50.676;7.838;2023-11-21T06:31:18;38.45;;;17.13;;
54935;SDS011;40838;50.676;7.838;2023-11-21T06:33:47;33.05;;;15.80;;
54935;SDS011;40838;50.676;7.838;2023-11-21T06:36:13;36.50;;;15.45;;
54935;SDS011;40838;50.676;7.838;2023-11-21T06:38:40;40.50;;;16.13;;
54935;SDS011;40838;50.676;7.838;2023-11-21T06:41:08;28.88;;;14.82;;
54935;SDS011;40838;50.676;7.838;2023-11-21T06:43:35;37.22;;;15.43;;
54935;SDS011;40838;50.676;7.838;2023-11-21T06:46:02;33.90;;;15.27;;
54935;SDS011;40838;50.676;7.838;2023-11-21T06:48:29;27.85;;;14.75;;
54935;SDS011;40838;50.676;7.838;2023-11-21T06:50:58;39.70;;;15.05;;
54935;SDS011;40838;50.676;7.838;2023-11-21T06:53:25;29.85;;;15.63;;
54935;SDS011;40838;50.676;7.838;2023-11-21T06:55:51;32.45;;;15.07;;
54935;SDS011;40838;50.676;7.838;2023-11-21T06:58:20;35.60;;;15.23;;
54935;SDS011;40838;50.676;7.838;2023-11-21T07:00:46;40.25;;;16.20;;
54935;SDS011;40838;50.676;7.838;2023-11-21T07:03:15;39.67;;;16.02;;
54935;SDS011;40838;50.676;7.838;2023-11-21T07:05:44;37.88;;;15.60;;
54935;SDS011;40838;50.676;7.838;2023-11-21T07:08:11;45.70;;;16.85;;
54935;SDS011;40838;50.676;7.838;2023-11-21T07:10:37;33.38;;;15.02;;
54935;SDS011;40838;50.676;7.838;2023-11-21T07:13:04;30.58;;;16.70;;
54935;SDS011;40838;50.676;7.838;2023-11-21T07:15:33;34.53;;;15.75;;
54935;SDS011;40838;50.676;7.838;2023-11-21T07:18:00;29.10;;;14.63;;
54935;SDS011;40838;50.676;7.838;2023-11-21T07:20:26;30.73;;;14.90;;
54935;SDS011;40838;50.676;7.838;2023-11-21T07:22:55;29.48;;;15.68;;
54935;SDS011;40838;50.676;7.838;2023-11-21T07:25:23;37.50;;;16.08;;
54935;SDS011;40838;50.676;7.838;2023-11-21T07:27:49;35.38;;;17.85;;
54935;SDS011;40838;50.676;7.838;2023-11-21T07:30:16;35.95;;;18.10;;
54935;SDS011;40838;50.676;7.838;2023-11-21T07:32:44;30.58;;;15.63;;
54935;SDS011;40838;50.676;7.838;2023-11-21T07:35:13;32.45;;;15.20;;
54935;SDS011;40838;50.676;7.838;2023-11-21T07:37:42;31.60;;;16.45;;
54935;SDS011;40838;50.676;7.838;2023-11-21T07:40:09;35.80;;;16.55;;
54935;SDS011;40838;50.676;7.838;2023-11-21T07:42:36;31.23;;;14.65;;
54935;SDS011;40838;50.676;7.838;2023-11-21T07:45:04;28.35;;;15.00;;
54935;SDS011;40838;50.676;7.838;2023-11-21T07:47:32;32.65;;;15.15;;
54935;SDS011;40838;50.676;7.838;2023-11-21T07:50:01;24.58;;;14.05;;
54935;SDS011;40838;50.676;7.838;2023-11-21T07:52:29;32.03;;;15.13;;
54935;SDS011;40838;50.676;7.838;2023-11-21T07:54:55;30.67;;;14.80;;
54935;SDS011;40838;50.676;7.838;2023-11-21T07:57:22;27.92;;;13.55;;
54935;SDS011;40838;50.676;7.838;2023-11-21T07:59:49;42.28;;;17.08;;
54935;SDS011;40838;50.676;7.838;2023-11-21T08:02:18;38.08;;;16.75;;
54935;SDS011;40838;50.676;7.838;2023-11-21T08:04:45;54.33;;;19.88;;
54935;SDS011;40838;50.676;7.838;2023-11-21T08:07:15;33.33;;;16.58;;
54935;SDS011;40838;50.676;7.838;2023-11-21T08:09:42;35.15;;;15.18;;
54935;SDS011;40838;50.676;7.838;2023-11-21T08:12:09;37.35;;;16.50;;
54935;SDS011;40838;50.676;7.838;2023-11-21T08:14:36;32.55;;;15.77;;
54935;SDS011;40838;50.676;7.838;2023-11-21T08:17:05;27.77;;;14.77;;
54935;SDS011;40838;50.676;7.838;2023-11-21T08:19:32;33.47;;;16.52;;
54935;SDS011;40838;50.676;7.838;2023-11-21T08:21:59;30.90;;;15.32;;
54935;SDS011;40838;50.676;7.838;2023-11-21T08:24:27;26.55;;;15.88;;
54935;SDS011;40838;50.676;7.838;2023-11-21T08:26:54;34.08;;;14.63;;
54935;SDS011;40838;50.676;7.838;2023-11-21T08:29:21;28.10;;;13.65;;
54935;SDS011;40838;50.676;7.838;2023-11-21T08:31:50;28.55;;;13.90;;
54935;SDS011;40838;50.676;7.838;2023-11-21T08:34:17;36.00;;;15.00;;
54935;SDS011;40838;50.676;7.838;2023-11-21T08:36:44;28.95;;;13.63;;
54935;SDS011;40838;50.676;7.838;2023-11-21T08:39:10;31.20;;;14.60;;
54935;SDS011;40838;50.676;7.838;2023-11-21T08:41:39;37.67;;;15.93;;
54935;SDS011;40838;50.676;7.838;2023-11-21T08:44:06;29.73;;;15.63;;
54935;SDS011;40838;50.676;7.838;2023-11-21T08:46:33;30.83;;;12.95;;
54935;SDS011;40838;50.676;7.838;2023-11-21T08:49:03;33.28;;;15.60;;
54935;SDS011;40838;50.676;7.838;2023-11-21T08:51:33;33.83;;;15.70;;
54935;SDS011;40838;50.676;7.838;2023-11-21T08:54:00;32.97;;;16.58;;
54935;SDS011;40838;50.676;7.838;2023-11-21T08:56:29;31.85;;;16.35;;
54935;SDS011;40838;50.676;7.838;2023-11-21T08:58:57;40.35;;;17.92;;
54935;SDS011;40838;50.676;7.838;2023-11-21T09:01:25;37.42;;;18.58;;
54935;SDS011;40838;50.676;7.838;2023-11-21T09:03:52;38.88;;;17.52;;
54935;SDS011;40838;50.676;7.838;2023-11-21T09:06:19;39.70;;;17.50;;
54935;SDS011;40838;50.676;7.838;2023-11-21T09:08:46;42.33;;;18.65;;
54935;SDS011;40838;50.676;7.838;2023-11-21T09:11:12;34.88;;;18.83;;
54935;SDS011;40838;50.676;7.838;2023-11-21T09:13:39;33.47;;;16.80;;
54935;SDS011;40838;50.676;7.838;2023-11-21T09:16:09;41.92;;;17.45;;
54935;SDS011;40838;50.676;7.838;2023-11-21T09:18:37;31.15;;;16.70;;
54935;SDS011;40838;50.676;7.838;2023-11-21T09:21:04;40.20;;;16.52;;
54935;SDS011;40838;50.676;7.838;2023-11-21T09:23:31;31.13;;;14.77;;
54935;SDS011;40838;50.676;7.838;2023-11-21T09:25:58;40.10;;;17.42;;
54935;SDS011;40838;50.676;7.838;2023-11-21T09:28:26;32.88;;;17.55;;
54935;SDS011;40838;50.676;7.838;2023-11-21T09:30:52;34.97;;;17.85;;
54935;SDS011;40838;50.676;7.838;2023-11-21T09:33:20;34.15;;;17.67;;
54935;SDS011;40838;50.676;7.838;2023-11-21T09:35:50;36.92;;;17.65;;
54935;SDS011;40838;50.676;7.838;2023-11-21T09:38:17;44.83;;;18.70;;
54935;SDS011;40838;50.676;7.838;2023-11-21T09:40:44;34.25;;;17.38;;
54935;SDS011;40838;50.676;7.838;2023-11-21T09:43:14;38.58;;;17.15;;
54935;SDS011;40838;50.676;7.838;2023-11-21T09:45:44;32.60;;;16.50;;
54935;SDS011;40838;50.676;7.838;2023-11-21T09:48:12;34.58;;;16.92;;
54935;SDS011;40838;50.676;7.838;2023-11-21T09:50:41;36.92;;;17.85;;
54935;SDS011;40838;50.676;7.838;2023-11-21T09:53:11;40.88;;;18.55;;
54935;SDS011;40838;50.676;7.838;2023-11-21T09:55:42;33.53;;;17.98;;
54935;SDS011;40838;50.676;7.838;2023-11-21T09:58:09;32.95;;;16.88;;
54935;SDS011;40838;50.676;7.838;2023-11-21T10:00:39;33.92;;;17.30;;
54935;SDS011;40838;50.676;7.838;2023-11-21T10:03:06;34.75;;;17.92;;
54935;SDS011;40838;50.676;7.838;2023-11-21T10:05:34;32.50;;;16.17;;
54935;SDS011;40838;50.676;7.838;2023-11-21T10:08:02;33.30;;;16.15;;
54935;SDS011;40838;50.676;7.838;2023-11-21T10:10:31;29.80;;;16.42;;
54935;SDS011;40838;50.676;7.838;2023-11-21T10:13:00;32.30;;;15.65;;
54935;SDS011;40838;50.676;7.838;2023-11-21T10:15:31;31.02;;;15.88;;
54935;SDS011;40838;50.676;7.838;2023-11-21T10:18:02;32.28;;;16.50;;
54935;SDS011;40838;50.676;7.838;2023-11-21T10:20:29;30.00;;;15.88;;
54935;SDS011;40838;50.676;7.838;2023-11-21T10:22:58;34.35;;;16.95;;
54935;SDS011;40838;50.676;7.838;2023-11-21T10:25:28;35.28;;;17.67;;
54935;SDS011;40838;50.676;7.838;2023-11-21T10:27:57;32.28;;;17.63;;
54935;SDS011;40838;50.676;7.838;2023-11-21T10:30:27;40.03;;;16.98;;
54935;SDS011;40838;50.676;7.838;2023-11-21T10:32:58;38.78;;;18.48;;
54935;SDS011;40838;50.676;7.838;2023-11-21T10:35:38;44.47;;;20.08;;
54935;SDS011;40838;50.676;7.838;2023-11-21T10:38:06;42.25;;;18.25;;
54935;SDS011;40838;50.676;7.838;2023-11-21T10:40:38;42.55;;;20.05;;
54935;SDS011;40838;50.676;7.838;2023-11-21T10:43:07;38.55;;;17.70;;
54935;SDS011;40838;50.676;7.838;2023-11-21T10:45:35;44.22;;;19.63;;
54935;SDS011;40838;50.676;7.838;2023-11-21T10:48:04;36.83;;;18.13;;
54935;SDS011;40838;50.676;7.838;2023-11-21T10:50:33;35.47;;;17.65;;
54935;SDS011;40838;50.676;7.838;2023-11-21T10:53:01;37.13;;;17.60;;
54935;SDS011;40838;50.676;7.838;2023-11-21T10:55:29;44.50;;;19.85;;
54935;SDS011;40838;50.676;7.838;2023-11-21T10:57:58;45.58;;;20.17;;
54935;SDS011;40838;50.676;7.838;2023-11-21T11:00:27;48.45;;;20.38;;
54935;SDS011;40838;50.676;7.838;2023-11-21T11:02:54;41.25;;;19.17;;
54935;SDS011;40838;50.676;7.838;2023-11-21T11:05:22;45.40;;;20.33;;
54935;SDS011;40838;50.676;7.838;2023-11-21T11:07:51;36.63;;;18.85;;
54935;SDS011;40838;50.676;7.838;2023-11-21T11:10:25;39.20;;;18.40;;
54935;SDS011;40838;50.676;7.838;2023-11-21T11:12:52;32.58;;;17.30;;
54935;SDS011;40838;50.676;7.838;2023-11-21T11:15:22;42.97;;;20.20;;
54935;SDS011;40838;50.676;7.838;2023-11-21T11:17:49;38.35;;;18.58;;
54935;SDS011;40838;50.676;7.838;2023-11-21T11:20:19;36.28;;;18.60;;
54935;SDS011;40838;50.676;7.838;2023-11-21T11:22:48;37.30;;;18.38;;
54935;SDS011;40838;50.676;7.838;2023-11-21T11:25:30;39.10;;;18.67;;
54935;SDS011;40838;50.676;7.838;2023-11-21T11:28:19;42.35;;;20.40;;
54935;SDS011;40838;50.676;7.838;2023-11-21T11:30:53;38.22;;;20.65;;
54935;SDS011;40838;50.676;7.838;2023-11-21T11:33:31;37.67;;;19.75;;
54935;SDS011;40838;50.676;7.838;2023-11-21T11:36:06;40.33;;;20.65;;
54935;SDS011;40838;50.676;7.838;2023-11-21T11:38:37;43.42;;;21.35;;
54935;SDS011;40838;50.676;7.838;2023-11-21T11:41:04;41.72;;;20.00;;
54935;SDS011;40838;50.676;7.838;2023-11-21T11:43:32;41.63;;;18.70;;
54935;SDS011;40838;50.676;7.838;2023-11-21T11:46:06;37.22;;;20.33;;
54935;SDS011;40838;50.676;7.838;2023-11-21T11:48:34;44.53;;;20.90;;
54935;SDS011;40838;50.676;7.838;2023-11-21T11:51:04;42.17;;;20.05;;
54935;SDS011;40838;50.676;7.838;2023-11-21T11:53:37;41.72;;;21.17;;
54935;SDS011;40838;50.676;7.838;2023-11-21T11:58:55;53.13;;;24.13;;
54935;SDS011;40838;50.676;7.838;2023-11-21T12:01:25;37.35;;;20.73;;
54935;SDS011;40838;50.676;7.838;2023-11-21T12:06:56;40.90;;;19.75;;
54935;SDS011;40838;50.676;7.838;2023-11-21T12:09:25;39.65;;;19.20;;
54935;SDS011;40838;50.676;7.838;2023-11-21T12:11:53;40.17;;;19.38;;
54935;SDS011;40838;50.676;7.838;2023-11-21T12:14:21;45.90;;;20.42;;
54935;SDS011;40838;50.676;7.838;2023-11-21T12:16:50;43.15;;;19.13;;
54935;SDS011;40838;50.676;7.838;2023-11-21T12:19:17;43.38;;;19.55;;
54935;SDS011;40838;50.676;7.838;2023-11-21T12:21:46;42.63;;;19.67;;
54935;SDS011;40838;50.676;7.838;2023-11-21T12:24:13;40.20;;;20.23;;
54935;SDS011;40838;50.676;7.838;2023-11-21T12:26:41;36.75;;;18.52;;
54935;SDS011;40838;50.676;7.838;2023-11-21T12:29:09;44.70;;;20.27;;
54935;SDS011;40838;50.676;7.838;2023-11-21T12:31:36;43.67;;;20.58;;
54935;SDS011;40838;50.676;7.838;2023-11-21T12:34:04;51.13;;;19.95;;
54935;SDS011;40838;50.676;7.838;2023-11-21T12:36:32;40.03;;;18.70;;
54935;SDS011;40838;50.676;7.838;2023-11-21T12:39:00;33.03;;;18.77;;
54935;SDS011;40838;50.676;7.838;2023-11-21T12:41:28;42.67;;;19.33;;
54935;SDS011;40838;50.676;7.838;2023-11-21T12:43:55;39.33;;;18.90;;
54935;SDS011;40838;50.676;7.838;2023-11-21T12:46:22;41.08;;;18.77;;
54935;SDS011;40838;50.676;7.838;2023-11-21T12:48:51;41.65;;;17.25;;
54935;SDS011;40838;50.676;7.838;2023-11-21T12:51:20;49.60;;;18.88;;
54935;SDS011;40838;50.676;7.838;2023-11-21T12:53:47;31.10;;;17.48;;
54935;SDS011;40838;50.676;7.838;2023-11-21T12:56:15;42.95;;;18.80;;
54935;SDS011;40838;50.676;7.838;2023-11-21T12:58:43;46.33;;;18.55;;
54935;SDS011;40838;50.676;7.838;2023-11-21T13:01:12;38.58;;;18.10;;
54935;SDS011;40838;50.676;7.838;2023-11-21T13:03:46;37.60;;;17.98;;
54935;SDS011;40838;50.676;7.838;2023-11-21T13:06:16;38.65;;;17.40;;
54935;SDS011;40838;50.676;7.838;2023-11-21T13:08:45;37.40;;;17.33;;
54935;SDS011;40838;50.676;7.838;2023-11-21T13:11:12;46.55;;;19.13;;
54935;SDS011;40838;50.676;7.838;2023-11-21T13:13:40;35.58;;;17.13;;
54935;SDS011;40838;50.676;7.838;2023-11-21T13:16:08;36.85;;;17.00;;
54935;SDS011;40838;50.676;7.838;2023-11-21T13:18:35;36.78;;;17.40;;
54935;SDS011;40838;50.676;7.838;2023-11-21T13:21:03;38.63;;;17.83;;
54935;SDS011;40838;50.676;7.838;2023-11-21T13:23:35;44.05;;;18.10;;
54935;SDS011;40838;50.676;7.838;2023-11-21T13:26:04;35.33;;;16.45;;
54935;SDS011;40838;50.676;7.838;2023-11-21T13:28:31;43.22;;;17.85;;
54935;SDS011;40838;50.676;7.838;2023-11-21T13:30:59;41.67;;;17.08;;
54935;SDS011;40838;50.676;7.838;2023-11-21T13:33:29;36.53;;;17.58;;
54935;SDS011;40838;50.676;7.838;2023-11-21T13:35:58;42.50;;;18.10;;
54935;SDS011;40838;50.676;7.838;2023-11-21T13:38:26;47.20;;;18.13;;
54935;SDS011;40838;50.676;7.838;2023-11-21T13:40:58;37.78;;;17.65;;
54935;SDS011;40838;50.676;7.838;2023-11-21T13:43:26;40.22;;;17.55;;
54935;SDS011;40838;50.676;7.838;2023-11-21T13:45:54;39.00;;;16.98;;
54935;SDS011;40838;50.676;7.838;2023-11-21T13:48:25;43.47;;;18.95;;
54935;SDS011;40838;50.676;7.838;2023-11-21T13:50:57;38.55;;;18.13;;
54935;SDS011;40838;50.676;7.838;2023-11-21T13:53:26;42.28;;;17.02;;
54935;SDS011;40838;50.676;7.838;2023-11-21T13:55:53;41.63;;;18.27;;
54935;SDS011;40838;50.676;7.838;2023-11-21T13:58:22;42.53;;;17.70;;
54935;SDS011;40838;50.676;7.838;2023-11-21T14:00:52;36.92;;;16.30;;
54935;SDS011;40838;50.676;7.838;2023-11-21T14:03:21;31.10;;;16.35;;
54935;SDS011;40838;50.676;7.838;2023-11-21T14:05:48;32.80;;;17.33;;
54935;SDS011;40838;50.676;7.838;2023-11-21T14:08:17;39.28;;;16.67;;
54935;SDS011;40838;50.676;7.838;2023-11-21T14:10:46;39.28;;;17.83;;
54935;SDS011;40838;50.676;7.838;2023-11-21T14:13:16;36.63;;;17.48;;
54935;SDS011;40838;50.676;7.838;2023-11-21T14:15:45;45.00;;;17.90;;
54935;SDS011;40838;50.676;7.838;2023-11-21T14:18:17;34.92;;;16.35;;
54935;SDS011;40838;50.676;7.838;2023-11-21T14:20:53;46.53;;;17.48;;
54935;SDS011;40838;50.676;7.838;2023-11-21T14:23:20;37.13;;;17.95;;
54935;SDS011;40838;50.676;7.838;2023-11-21T14:25:48;43.40;;;17.98;;
54935;SDS011;40838;50.676;7.838;2023-11-21T14:28:16;42.58;;;18.00;;
54935;SDS011;40838;50.676;7.838;2023-11-21T14:30:44;43.67;;;18.90;;
54935;SDS011;40838;50.676;7.838;2023-11-21T14:33:11;44.00;;;19.25;;
54935;SDS011;40838;50.676;7.838;2023-11-21T14:35:39;44.72;;;18.90;;
54935;SDS011;40838;50.676;7.838;2023-11-21T14:38:06;39.47;;;17.70;;
54935;SDS011;40838;50.676;7.838;2023-11-21T14:40:33;41.28;;;18.27;;